Terminal Aerodrome Forecast
Issued by NWS

Home | Current Version | Previous Version | Text Only | Print | Product List | Glossary Off
Versions: 1 2 3 4 5 6 7 8 9 10 11 12 13 14 15 16 17 18

000
FTUS43 KABR 211100
TAFMBG
TAF
KMBG 211120Z 2112/2212 VRB06KT P6SM SKC
     FM211500 33012G20KT P6SM SCT200
     FM220000 08007KT P6SM SKC=

USA.gov is the U.S. government's official web portal to all federal, state and local government web resources and services.